Time;durP1;ratioP1;P1;durP2;ratioP2;P2;SDS_P1;SDS_P2;PMS_P1;PMS_P2;Temp;Humidity;BMP_temperature;BMP_pressure;BME280_temperature;BME280_humidity;BME280_pressure;Samples;Min_cycle;Max_cycle;Signal;HPM_P1;HPM_P2
2024/03/18 00:02:06;;;;;;;20.50;13.30;;;10.80;99.90;;;;;;4974428;28;20031;-83
2024/03/18 00:04:31;;;;;;;19.55;12.07;;;10.80;99.90;;;;;;4971634;28;20487;-83
2024/03/18 00:06:57;;;;;;;22.02;13.45;;;10.80;99.90;;;;;;4974007;28;20027;-84
2024/03/18 00:09:23;;;;;;;18.80;12.70;;;10.80;99.90;;;;;;4973142;28;20039;-83
2024/03/18 00:11:48;;;;;;;24.33;12.70;;;10.80;99.90;;;;;;4970319;28;20033;-83
2024/03/18 00:14:14;;;;;;;20.35;12.25;;;10.90;99.90;;;;;;4969237;28;20027;-83
2024/03/18 00:16:39;;;;;;;23.80;13.35;;;10.90;99.90;;;;;;4965649;28;20050;-83
2024/03/18 00:19:05;;;;;;;18.50;13.63;;;10.80;99.90;;;;;;4973189;28;20031;-84
2024/03/18 00:21:30;;;;;;;18.17;11.88;;;10.80;99.90;;;;;;4969625;28;20031;-84
2024/03/18 00:23:56;;;;;;;19.90;12.25;;;10.90;99.90;;;;;;4971107;28;20033;-84
2024/03/18 00:26:22;;;;;;;23.02;13.88;;;10.90;99.90;;;;;;4972752;28;20122;-84
2024/03/18 00:28:48;;;;;;;15.15;11.20;;;10.90;99.90;;;;;;4959512;28;20047;-84
2024/03/18 00:31:14;;;;;;;17.75;11.50;;;11.00;99.90;;;;;;4966969;28;20031;-84
2024/03/18 00:33:39;;;;;;;18.10;11.48;;;11.00;99.90;;;;;;4968789;28;20049;-83
2024/03/18 00:36:05;;;;;;;17.45;11.88;;;11.00;99.90;;;;;;4968547;28;20483;-84
2024/03/18 00:38:31;;;;;;;19.02;12.23;;;11.00;99.90;;;;;;4971362;28;20023;-83
2024/03/18 00:41:44;;;;;;;19.83;11.65;;;11.00;99.90;;;;;;4972160;28;20034;-84
2024/03/18 00:43:42;;;;;;;20.48;11.75;;;11.00;99.90;;;;;;4961363;28;20219;-84
2024/03/18 00:46:07;;;;;;;17.67;11.93;;;11.00;99.90;;;;;;4958518;28;20089;-84
2024/03/18 00:48:34;;;;;;;17.40;12.38;;;11.00;99.90;;;;;;4972071;28;20042;-83
2024/03/18 00:51:00;;;;;;;18.38;11.52;;;11.00;99.90;;;;;;4970906;28;20022;-83
2024/03/18 00:53:26;;;;;;;21.40;12.88;;;11.00;99.90;;;;;;4962694;28;20185;-84
2024/03/18 00:55:52;;;;;;;15.57;11.32;;;11.00;99.90;;;;;;4971703;28;20110;-84
2024/03/18 00:58:17;;;;;;;19.25;12.15;;;11.00;99.90;;;;;;4973547;28;20422;-83
2024/03/18 01:00:43;;;;;;;22.27;12.50;;;11.00;99.90;;;;;;4988207;28;20396;-84
2024/03/18 01:03:09;;;;;;;19.08;11.70;;;11.00;99.90;;;;;;4972087;28;20483;-83
2024/03/18 01:05:34;;;;;;;16.42;11.85;;;11.00;99.90;;;;;;4963790;28;20038;-83
2024/03/18 01:08:01;;;;;;;19.73;11.40;;;11.00;99.90;;;;;;4964753;28;20515;-83
2024/03/18 01:10:27;;;;;;;19.20;12.38;;;11.00;99.90;;;;;;4972058;28;20055;-83
2024/03/18 01:12:55;;;;;;;21.63;13.50;;;11.00;99.90;;;;;;4971427;28;20109;-83
2024/03/18 01:15:21;;;;;;;16.05;12.00;;;11.00;99.90;;;;;;4998583;28;20033;-83
2024/03/18 01:17:47;;;;;;;17.95;12.57;;;11.00;99.90;;;;;;4955941;28;20027;-83
2024/03/18 01:20:18;;;;;;;20.25;13.13;;;11.10;99.90;;;;;;4962834;28;20046;-83
2024/03/18 01:22:45;;;;;;;17.73;12.00;;;11.10;99.90;;;;;;4971704;28;20395;-83
2024/03/18 01:25:13;;;;;;;17.23;12.75;;;11.10;99.90;;;;;;4985328;28;20445;-83
2024/03/18 01:27:45;;;;;;;18.05;13.23;;;11.10;99.90;;;;;;4971641;28;20086;-83
2024/03/18 01:30:12;;;;;;;14.20;11.45;;;11.10;99.90;;;;;;4970213;28;20571;-83
2024/03/18 01:32:38;;;;;;;20.20;14.07;;;11.10;99.90;;;;;;4971985;28;20498;-83
2024/03/18 01:35:08;;;;;;;21.48;12.88;;;11.10;99.90;;;;;;4987810;28;20077;-83
2024/03/18 01:37:35;;;;;;;18.25;13.45;;;11.20;99.90;;;;;;4966250;28;20066;-83
2024/03/18 01:40:01;;;;;;;17.52;13.65;;;11.20;99.90;;;;;;4971776;28;20031;-83
2024/03/18 01:42:27;;;;;;;21.75;13.38;;;11.20;99.90;;;;;;4954648;28;20114;-83
2024/03/18 01:44:54;;;;;;;21.42;13.68;;;11.20;99.90;;;;;;4971189;28;20476;-83
2024/03/18 01:47:21;;;;;;;20.02;14.50;;;11.20;99.90;;;;;;4988312;28;20037;-83
2024/03/18 01:49:49;;;;;;;22.70;14.57;;;11.10;99.90;;;;;;4975191;28;20035;-83
2024/03/18 01:52:15;;;;;;;18.38;14.38;;;11.10;99.90;;;;;;4974930;28;20127;-83
2024/03/18 01:54:42;;;;;;;22.15;14.88;;;11.10;99.90;;;;;;4972968;28;20022;-83
2024/03/18 01:57:09;;;;;;;20.35;14.75;;;11.10;99.90;;;;;;4973081;28;20039;-83
2024/03/18 01:59:35;;;;;;;23.10;15.35;;;11.10;99.90;;;;;;4957921;28;20054;-83
2024/03/18 02:02:00;;;;;;;21.65;14.73;;;11.10;99.90;;;;;;4975096;28;20034;-83
2024/03/18 02:04:26;;;;;;;25.38;16.13;;;11.10;99.90;;;;;;4973153;28;20117;-83
2024/03/18 02:06:52;;;;;;;19.13;15.27;;;11.20;99.90;;;;;;4991144;28;20027;-84
2024/03/18 02:09:19;;;;;;;21.50;15.77;;;11.20;99.90;;;;;;4967242;28;20041;-83
2024/03/18 02:11:45;;;;;;;22.25;15.23;;;11.20;99.90;;;;;;4976001;28;20117;-82
2024/03/18 02:14:15;;;;;;;21.17;14.32;;;11.20;99.90;;;;;;4972636;28;20042;-83
2024/03/18 02:16:41;;;;;;;19.95;15.15;;;11.20;99.90;;;;;;4973713;28;21443;-83
2024/03/18 02:19:07;;;;;;;20.50;15.63;;;11.20;99.90;;;;;;4969552;28;20033;-83
2024/03/18 02:21:32;;;;;;;21.13;15.57;;;11.20;99.90;;;;;;4975059;28;20403;-83
2024/03/18 02:23:58;;;;;;;21.95;16.23;;;11.30;99.90;;;;;;4975693;28;20073;-83
2024/03/18 02:26:24;;;;;;;24.90;16.67;;;11.20;99.90;;;;;;4964428;28;20031;-83
2024/03/18 02:28:51;;;;;;;23.85;16.13;;;11.20;99.90;;;;;;4962945;28;20035;-83
2024/03/18 02:31:17;;;;;;;22.42;15.82;;;11.30;99.90;;;;;;4968257;28;20026;-83
2024/03/18 02:33:43;;;;;;;22.30;16.80;;;11.20;99.90;;;;;;4972323;28;20035;-83
2024/03/18 02:36:09;;;;;;;21.08;16.42;;;11.20;99.90;;;;;;4974077;28;20511;-83
2024/03/18 02:38:35;;;;;;;32.92;18.15;;;11.30;99.90;;;;;;4987389;28;20035;-83
2024/03/18 02:41:00;;;;;;;25.73;19.10;;;11.20;99.90;;;;;;4965793;28;20471;-83
2024/03/18 02:43:26;;;;;;;25.98;17.25;;;11.20;99.90;;;;;;4968614;28;20038;-83
2024/03/18 02:45:52;;;;;;;24.45;17.40;;;11.20;99.90;;;;;;4968650;28;20026;-83
2024/03/18 02:48:24;;;;;;;25.42;17.33;;;11.20;99.90;;;;;;4964849;28;20038;-84
2024/03/18 02:50:50;;;;;;;28.08;18.30;;;11.20;99.90;;;;;;4970135;28;20085;-83
2024/03/18 02:53:16;;;;;;;25.40;17.52;;;11.20;99.90;;;;;;4971461;28;20027;-83
2024/03/18 02:55:42;;;;;;;26.15;18.35;;;11.20;99.90;;;;;;4994014;28;20034;-83
2024/03/18 02:58:07;;;;;;;27.92;18.70;;;11.20;99.90;;;;;;4973969;28;20403;-83
2024/03/18 03:00:33;;;;;;;28.77;18.42;;;11.20;99.90;;;;;;4973078;28;20047;-83
2024/03/18 03:02:59;;;;;;;27.02;18.52;;;11.20;99.90;;;;;;4967119;28;20513;-83
2024/03/18 03:05:25;;;;;;;29.90;19.67;;;11.20;99.90;;;;;;4972057;28;20027;-83
2024/03/18 03:07:50;;;;;;;26.55;17.90;;;11.20;99.90;;;;;;4971607;28;20029;-83
2024/03/18 03:10:17;;;;;;;27.60;18.55;;;11.20;99.90;;;;;;4971530;28;20089;-83
2024/03/18 03:12:43;;;;;;;26.13;18.33;;;11.20;99.90;;;;;;4972973;28;20023;-83
2024/03/18 03:15:09;;;;;;;31.35;19.77;;;11.20;99.90;;;;;;4969529;28;20024;-83
2024/03/18 03:17:34;;;;;;;27.90;18.48;;;11.20;99.90;;;;;;4965787;28;20023;-83
2024/03/18 03:20:00;;;;;;;29.13;18.92;;;11.20;99.90;;;;;;4973319;28;20022;-84
2024/03/18 03:22:26;;;;;;;27.88;19.10;;;11.20;99.90;;;;;;4973229;28;20463;-83
2024/03/18 03:24:52;;;;;;;24.83;17.52;;;11.20;99.90;;;;;;4973287;28;20078;-83
2024/03/18 03:27:17;;;;;;;26.80;18.58;;;11.20;99.90;;;;;;4973909;28;20031;-83
2024/03/18 03:29:43;;;;;;;27.10;18.63;;;11.20;99.90;;;;;;4958354;28;20039;-83
2024/03/18 03:32:14;;;;;;;28.15;18.80;;;11.20;99.90;;;;;;4972452;28;20027;-83
2024/03/18 03:34:40;;;;;;;28.25;18.75;;;11.20;99.90;;;;;;4972929;28;20035;-83
2024/03/18 03:37:07;;;;;;;32.05;18.25;;;11.20;99.90;;;;;;4971773;28;20029;-83
2024/03/18 03:39:35;;;;;;;37.97;20.00;;;11.20;99.90;;;;;;4968882;28;20026;-83
2024/03/18 03:42:01;;;;;;;28.83;18.17;;;11.20;99.90;;;;;;4968261;28;20027;-83
2024/03/18 03:44:28;;;;;;;29.48;18.17;;;11.10;99.90;;;;;;4965802;28;20023;-83
2024/03/18 03:46:55;;;;;;;33.05;18.23;;;11.20;99.90;;;;;;4974580;28;20034;-83
2024/03/18 03:49:21;;;;;;;30.02;19.00;;;11.10;99.90;;;;;;4970296;28;20041;-83
2024/03/18 03:51:46;;;;;;;26.77;17.95;;;11.20;99.90;;;;;;4970564;28;20480;-84
2024/03/18 03:54:13;;;;;;;29.17;18.83;;;11.20;99.90;;;;;;4965347;28;20026;-83
2024/03/18 03:56:39;;;;;;;30.88;19.60;;;11.20;99.90;;;;;;4966692;28;20180;-83
2024/03/18 03:59:04;;;;;;;32.28;19.40;;;11.10;99.90;;;;;;4973283;28;20133;-83
2024/03/18 04:01:30;;;;;;;30.27;19.90;;;11.10;99.90;;;;;;4972748;28;20027;-83
2024/03/18 04:03:56;;;;;;;30.63;20.63;;;11.10;99.90;;;;;;4972238;28;20570;-83
2024/03/18 04:06:22;;;;;;;32.00;19.90;;;11.10;99.90;;;;;;4970585;28;20109;-83
2024/03/18 04:08:48;;;;;;;32.47;19.75;;;11.10;99.90;;;;;;4972983;28;20125;-83
2024/03/18 04:11:13;;;;;;;29.98;20.05;;;11.10;99.90;;;;;;4972569;28;20158;-83
2024/03/18 04:13:39;;;;;;;38.35;21.77;;;11.10;99.90;;;;;;4972634;28;20463;-83
2024/03/18 04:16:05;;;;;;;33.50;20.65;;;11.10;99.90;;;;;;4979513;28;20031;-83
2024/03/18 04:18:31;;;;;;;36.38;20.33;;;11.10;99.90;;;;;;4978856;28;20032;-83
2024/03/18 04:20:59;;;;;;;34.63;20.63;;;11.10;99.90;;;;;;4975071;28;20031;-82
2024/03/18 04:23:32;;;;;;;33.22;19.30;;;11.10;99.90;;;;;;4966430;28;20074;-83
2024/03/18 04:26:08;;;;;;;34.03;20.75;;;11.10;99.90;;;;;;4959569;28;20054;-83
2024/03/18 04:28:34;;;;;;;30.35;19.30;;;11.10;99.90;;;;;;4974153;28;20041;-83
2024/03/18 04:31:04;;;;;;;31.38;19.80;;;11.10;99.90;;;;;;4988107;28;20027;-83
2024/03/18 04:33:30;;;;;;;32.78;19.10;;;11.10;99.90;;;;;;4972877;28;20122;-84
2024/03/18 04:35:55;;;;;;;33.22;21.25;;;11.20;99.90;;;;;;4972228;28;20110;-83
2024/03/18 04:38:21;;;;;;;30.63;18.60;;;11.20;99.90;;;;;;4972220;28;20031;-83
2024/03/18 04:40:46;;;;;;;32.72;18.77;;;11.20;99.90;;;;;;4965499;28;20495;-83
2024/03/18 04:43:12;;;;;;;31.92;19.42;;;11.20;99.90;;;;;;4973438;28;20507;-83
2024/03/18 04:45:38;;;;;;;29.15;18.80;;;11.10;99.90;;;;;;4970539;28;20026;-83
2024/03/18 04:48:04;;;;;;;34.10;20.40;;;11.10;99.90;;;;;;4971680;28;20491;-83
2024/03/18 04:50:30;;;;;;;34.15;19.80;;;11.10;99.90;;;;;;4969432;28;20038;-83
2024/03/18 04:52:56;;;;;;;30.13;19.70;;;11.10;99.90;;;;;;4965678;28;20034;-83
2024/03/18 04:55:24;;;;;;;31.27;19.45;;;11.20;99.90;;;;;;4971641;28;20023;-84
2024/03/18 04:57:51;;;;;;;35.95;20.02;;;11.10;99.90;;;;;;4972047;28;20048;-83
2024/03/18 05:00:18;;;;;;;35.33;20.17;;;11.20;99.90;;;;;;4977332;28;20101;-83
2024/03/18 05:02:44;;;;;;;34.45;19.55;;;11.10;99.90;;;;;;4968470;28;20058;-83
2024/03/18 05:05:14;;;;;;;35.33;19.70;;;11.10;99.90;;;;;;4972455;28;20061;-83
2024/03/18 05:07:40;;;;;;;34.38;19.92;;;11.20;99.90;;;;;;4970887;28;20034;-83
2024/03/18 05:10:07;;;;;;;36.33;20.80;;;11.10;99.90;;;;;;4972001;28;20045;-83
2024/03/18 05:12:33;;;;;;;37.30;21.30;;;11.10;99.90;;;;;;4972684;28;20038;-83
2024/03/18 05:14:58;;;;;;;32.35;19.25;;;11.10;99.90;;;;;;4968737;28;20027;-83
2024/03/18 05:17:25;;;;;;;31.58;19.55;;;11.10;99.90;;;;;;4954272;28;20042;-83
2024/03/18 05:19:51;;;;;;;31.23;19.05;;;11.10;99.90;;;;;;4957472;28;20058;-83
2024/03/18 05:22:17;;;;;;;36.67;20.23;;;11.10;99.90;;;;;;4961224;28;20026;-83
2024/03/18 05:24:46;;;;;;;43.80;20.88;;;11.10;99.90;;;;;;4975433;28;20376;-83
2024/03/18 05:27:16;;;;;;;37.10;20.83;;;11.10;99.90;;;;;;4975294;28;20027;-83
2024/03/18 05:29:42;;;;;;;37.67;19.67;;;11.10;99.90;;;;;;4976379;28;20041;-84
2024/03/18 05:32:09;;;;;;;33.63;19.67;;;11.10;99.90;;;;;;4975283;28;20026;-84
2024/03/18 05:34:38;;;;;;;35.25;20.95;;;11.10;99.90;;;;;;4967865;28;20039;-84
2024/03/18 05:37:04;;;;;;;34.35;21.27;;;11.10;99.90;;;;;;4970809;28;20031;-84
2024/03/18 05:39:30;;;;;;;36.83;21.42;;;11.10;99.90;;;;;;4975086;28;20078;-83
2024/03/18 05:41:56;;;;;;;34.80;21.00;;;11.10;99.90;;;;;;4964351;28;20038;-83
2024/03/18 05:44:22;;;;;;;38.72;22.35;;;11.10;99.90;;;;;;4970477;28;20038;-84
2024/03/18 05:46:48;;;;;;;34.60;20.40;;;11.20;99.90;;;;;;4958201;28;20023;-83
2024/03/18 05:49:13;;;;;;;36.83;21.70;;;11.20;99.90;;;;;;4971587;28;20057;-83
2024/03/18 05:51:39;;;;;;;40.22;22.15;;;11.20;99.90;;;;;;4991505;28;20038;-83
2024/03/18 05:54:04;;;;;;;41.13;22.65;;;11.20;99.90;;;;;;4975167;28;20483;-84
2024/03/18 05:56:31;;;;;;;37.92;22.77;;;11.20;99.90;;;;;;4962092;28;20119;-83
2024/03/18 05:58:57;;;;;;;42.75;22.52;;;11.20;99.90;;;;;;4969776;28;20042;-83
2024/03/18 06:01:22;;;;;;;43.60;22.40;;;11.20;99.90;;;;;;4977588;28;20022;-83
2024/03/18 06:03:48;;;;;;;43.45;24.30;;;11.20;99.90;;;;;;4978217;28;20033;-83
2024/03/18 06:06:14;;;;;;;43.13;22.05;;;11.30;99.90;;;;;;4977765;28;20022;-83
2024/03/18 06:08:39;;;;;;;41.17;22.30;;;11.30;99.90;;;;;;4977703;28;20118;-83
2024/03/18 06:11:06;;;;;;;37.80;21.38;;;11.30;99.90;;;;;;4968975;28;20053;-83
2024/03/18 06:13:32;;;;;;;39.60;22.45;;;11.30;99.90;;;;;;4976219;28;20057;-83
2024/03/18 06:15:58;;;;;;;38.33;21.65;;;11.30;99.90;;;;;;4966065;28;20023;-84
2024/03/18 06:18:24;;;;;;;41.50;21.20;;;11.30;99.90;;;;;;4976086;28;20494;-84
2024/03/18 06:20:52;;;;;;;38.03;21.00;;;11.40;99.90;;;;;;4993443;28;20037;-83
2024/03/18 06:23:22;;;;;;;40.67;21.67;;;11.40;99.90;;;;;;4975099;28;20037;-83
2024/03/18 06:25:59;;;;;;;43.20;22.00;;;11.30;99.90;;;;;;4971382;28;20058;-83
2024/03/18 06:28:25;;;;;;;38.63;20.30;;;11.40;99.90;;;;;;4969969;28;20038;-84
2024/03/18 06:30:52;;;;;;;36.08;21.20;;;11.40;99.90;;;;;;4973072;28;20030;-83
2024/03/18 06:33:18;;;;;;;36.58;19.98;;;11.40;99.90;;;;;;4971622;28;20077;-83
2024/03/18 06:35:45;;;;;;;43.58;21.88;;;11.40;99.90;;;;;;4971098;28;20026;-84
2024/03/18 06:38:12;;;;;;;39.42;21.05;;;11.40;99.90;;;;;;4977993;28;20918;-83
2024/03/18 06:40:39;;;;;;;38.22;21.13;;;11.40;99.90;;;;;;4976671;28;20026;-83
2024/03/18 06:43:05;;;;;;;36.28;20.48;;;11.50;99.90;;;;;;4979231;28;20077;-83
2024/03/18 06:45:30;;;;;;;36.45;19.55;;;11.40;99.90;;;;;;4997093;28;20030;-83
2024/03/18 06:47:58;;;;;;;37.60;19.27;;;11.40;99.90;;;;;;4967983;28;20435;-83
2024/03/18 06:50:24;;;;;;;33.33;18.95;;;11.40;99.90;;;;;;4973505;28;20149;-83
2024/03/18 06:52:49;;;;;;;37.30;19.40;;;11.40;99.90;;;;;;4969218;28;20117;-83
2024/03/18 06:55:15;;;;;;;40.20;20.98;;;11.40;99.90;;;;;;4976773;28;20085;-84
2024/03/18 06:57:40;;;;;;;34.25;19.90;;;11.50;99.90;;;;;;4974080;28;20034;-83
2024/03/18 07:00:06;;;;;;;35.38;19.65;;;11.40;99.90;;;;;;4974766;28;20046;-84
2024/03/18 07:02:34;;;;;;;35.25;20.27;;;11.50;99.90;;;;;;4974531;28;20386;-83
2024/03/18 07:05:00;;;;;;;38.33;20.10;;;11.50;99.90;;;;;;4973120;28;20033;-83
2024/03/18 07:07:25;;;;;;;38.10;20.27;;;11.50;99.90;;;;;;4975287;28;20035;-83
2024/03/18 07:09:52;;;;;;;33.33;19.73;;;11.50;99.90;;;;;;4957387;28;20039;-84
2024/03/18 07:12:18;;;;;;;38.30;20.50;;;11.50;99.90;;;;;;4973705;28;20103;-83
2024/03/18 07:14:43;;;;;;;36.15;20.08;;;11.60;99.90;;;;;;4982852;28;20041;-84
2024/03/18 07:17:09;;;;;;;37.28;18.67;;;11.60;99.90;;;;;;4984693;28;20202;-83
2024/03/18 07:19:35;;;;;;;40.40;19.85;;;11.70;99.90;;;;;;4976456;28;20479;-84
2024/03/18 07:22:01;;;;;;;32.40;19.75;;;11.70;99.90;;;;;;4994450;28;20029;-84
2024/03/18 07:24:28;;;;;;;36.53;19.98;;;11.70;99.90;;;;;;4976187;28;20069;-84
2024/03/18 07:26:54;;;;;;;36.58;21.02;;;11.70;99.90;;;;;;4960053;28;20058;-84
2024/03/18 07:29:20;;;;;;;37.05;21.42;;;11.70;99.90;;;;;;4961527;28;20414;-84
2024/03/18 07:31:50;;;;;;;42.90;21.88;;;11.70;99.90;;;;;;4969382;28;20058;-84
2024/03/18 07:34:15;;;;;;;36.17;20.23;;;11.70;99.90;;;;;;4966111;28;20085;-84
2024/03/18 07:36:42;;;;;;;37.40;20.27;;;11.70;99.90;;;;;;4971587;28;20067;-84
2024/03/18 07:39:07;;;;;;;34.50;20.08;;;11.80;99.90;;;;;;4960068;28;20025;-84
2024/03/18 07:41:35;;;;;;;42.58;22.38;;;11.80;99.90;;;;;;4976336;28;20031;-84
2024/03/18 07:44:01;;;;;;;40.78;22.05;;;11.90;99.90;;;;;;4979697;28;20626;-83
2024/03/18 07:46:26;;;;;;;37.72;21.58;;;12.10;99.90;;;;;;4970520;28;20034;-84
2024/03/18 07:48:52;;;;;;;37.38;20.35;;;12.10;99.90;;;;;;4976065;28;20118;-84
2024/03/18 07:51:18;;;;;;;37.80;20.38;;;12.20;99.90;;;;;;4976444;28;20479;-84
2024/03/18 07:53:43;;;;;;;34.75;20.33;;;12.20;99.90;;;;;;4976362;28;20070;-84
2024/03/18 07:56:10;;;;;;;36.55;21.35;;;12.20;99.90;;;;;;4975651;28;20057;-84
2024/03/18 07:58:35;;;;;;;37.92;21.27;;;12.30;99.90;;;;;;4977470;28;20039;-84
2024/03/18 08:01:01;;;;;;;38.10;21.10;;;12.20;99.90;;;;;;4979920;28;20606;-84
2024/03/18 08:03:26;;;;;;;37.28;20.98;;;12.20;99.90;;;;;;4973775;28;20034;-83
2024/03/18 08:05:53;;;;;;;35.78;19.85;;;12.20;99.90;;;;;;4962025;28;20027;-84
2024/03/18 08:08:19;;;;;;;39.35;20.48;;;12.20;99.90;;;;;;4968714;28;20031;-83
2024/03/18 08:10:45;;;;;;;39.58;22.02;;;12.20;99.90;;;;;;4991412;28;20110;-84
2024/03/18 08:13:12;;;;;;;37.03;20.77;;;12.30;99.90;;;;;;4972292;28;20026;-84
2024/03/18 08:15:38;;;;;;;39.97;23.00;;;12.40;99.90;;;;;;4972565;28;20092;-84
2024/03/18 08:18:06;;;;;;;36.55;21.60;;;12.40;99.90;;;;;;4974555;28;20034;-83
2024/03/18 08:20:31;;;;;;;39.47;22.88;;;12.40;99.90;;;;;;4974317;28;20034;-84
2024/03/18 08:22:57;;;;;;;37.42;23.20;;;12.40;99.90;;;;;;4972093;28;20018;-84
2024/03/18 08:25:22;;;;;;;40.45;23.08;;;12.40;99.90;;;;;;4975374;28;20057;-85
2024/03/18 08:27:48;;;;;;;40.25;23.40;;;12.40;99.90;;;;;;4993161;28;20050;-83
2024/03/18 08:30:14;;;;;;;40.00;23.45;;;12.50;99.90;;;;;;4972550;28;20037;-84
2024/03/18 08:32:40;;;;;;;42.10;24.45;;;12.40;99.90;;;;;;4971065;28;20041;-84
2024/03/18 08:35:07;;;;;;;45.95;26.50;;;12.40;99.90;;;;;;4975007;28;20022;-84
2024/03/18 08:37:32;;;;;;;45.33;26.48;;;12.30;99.90;;;;;;4975893;28;20077;-84
2024/03/18 08:39:59;;;;;;;48.35;27.00;;;12.30;99.90;;;;;;4975561;28;20431;-84
2024/03/18 08:42:25;;;;;;;45.80;25.48;;;12.30;99.90;;;;;;4975525;28;20114;-83
2024/03/18 08:44:51;;;;;;;46.92;26.20;;;12.20;99.90;;;;;;4975440;28;20479;-84
2024/03/18 08:47:19;;;;;;;44.22;25.88;;;12.10;99.90;;;;;;4975521;28;20069;-84
2024/03/18 08:49:47;;;;;;;44.85;26.02;;;12.10;99.90;;;;;;4991853;28;20125;-84
2024/03/18 08:52:13;;;;;;;39.78;23.88;;;12.10;99.90;;;;;;4976495;28;20027;-83
2024/03/18 08:54:38;;;;;;;42.60;24.98;;;12.00;99.90;;;;;;4967280;28;20043;-84
2024/03/18 08:57:04;;;;;;;44.83;23.52;;;12.00;99.90;;;;;;4972463;28;20518;-84
2024/03/18 08:59:30;;;;;;;41.08;22.48;;;11.90;99.90;;;;;;4994588;28;20050;-85
2024/03/18 09:01:55;;;;;;;38.95;20.02;;;11.90;99.90;;;;;;4979411;28;20433;-84
2024/03/18 09:04:21;;;;;;;33.55;19.40;;;11.90;99.90;;;;;;4977720;28;20506;-84
2024/03/18 09:06:46;;;;;;;37.08;18.38;;;11.90;99.90;;;;;;4976303;28;20023;-84
2024/03/18 09:09:12;;;;;;;29.15;17.52;;;12.00;99.90;;;;;;4993967;28;20042;-84
2024/03/18 09:11:38;;;;;;;30.83;17.33;;;12.10;99.90;;;;;;4973252;28;20027;-83
2024/03/18 09:14:05;;;;;;;31.63;17.77;;;12.20;99.90;;;;;;4974062;28;20031;-83
2024/03/18 09:16:32;;;;;;;28.85;16.23;;;12.20;99.90;;;;;;4989980;28;20022;-84
2024/03/18 09:18:57;;;;;;;26.30;15.73;;;12.20;99.90;;;;;;4973415;28;20040;-84
2024/03/18 09:21:23;;;;;;;33.88;16.58;;;12.20;99.90;;;;;;5000168;28;20113;-84
2024/03/18 09:23:49;;;;;;;33.88;16.60;;;12.10;99.90;;;;;;4979140;28;20038;-84
2024/03/18 09:26:15;;;;;;;26.75;14.82;;;12.00;99.90;;;;;;4972745;28;20037;-84
2024/03/18 09:28:41;;;;;;;29.48;16.40;;;12.00;99.90;;;;;;4964965;28;20097;-83
2024/03/18 09:31:09;;;;;;;29.55;16.33;;;11.90;99.90;;;;;;4961105;28;20023;-83
2024/03/18 09:33:35;;;;;;;31.77;15.73;;;12.00;99.90;;;;;;4991250;28;20035;-84
2024/03/18 09:36:01;;;;;;;25.23;15.23;;;12.00;99.90;;;;;;4978590;28;20025;-83
2024/03/18 09:38:27;;;;;;;28.65;15.60;;;12.10;99.90;;;;;;4976153;28;20038;-83
2024/03/18 09:41:07;;;;;;;28.65;14.73;;;12.20;99.90;;;;;;4974827;28;20039;-83
2024/03/18 09:43:34;;;;;;;26.58;14.25;;;12.40;99.90;;;;;;4965438;28;20031;-81
2024/03/18 09:46:01;;;;;;;25.77;14.48;;;12.50;99.90;;;;;;4978692;28;20467;-82
2024/03/18 09:48:28;;;;;;;32.08;16.27;;;12.60;99.90;;;;;;4978243;28;20034;-82
2024/03/18 09:50:56;;;;;;;26.52;14.07;;;12.60;99.90;;;;;;4978380;28;20078;-84
2024/03/18 09:53:21;;;;;;;27.65;14.27;;;12.60;99.90;;;;;;4977918;28;20125;-84
2024/03/18 09:55:47;;;;;;;22.80;13.95;;;12.70;99.90;;;;;;4978788;28;20054;-84
2024/03/18 09:58:16;;;;;;;25.67;14.07;;;12.70;99.90;;;;;;4969862;28;20392;-85
2024/03/18 10:00:44;;;;;;;26.13;13.48;;;12.70;99.90;;;;;;4974326;28;20515;-87
2024/03/18 10:03:17;;;;;;;17.92;11.55;;;12.70;99.90;;;;;;4978426;28;20029;-82
2024/03/18 10:05:44;;;;;;;17.30;10.27;;;12.80;99.90;;;;;;4978046;28;20034;-82
2024/03/18 10:08:14;;;;;;;16.38;9.57;;;12.80;99.90;;;;;;4982407;28;20023;-82
2024/03/18 10:10:41;;;;;;;17.90;10.02;;;12.90;99.90;;;;;;4962261;28;20129;-81
2024/03/18 10:13:09;;;;;;;22.50;10.05;;;12.90;99.90;;;;;;4959277;28;20110;-82
2024/03/18 10:15:37;;;;;;;18.40;11.68;;;13.00;99.90;;;;;;4964783;28;20022;-83
2024/03/18 10:18:04;;;;;;;22.52;11.55;;;13.00;99.90;;;;;;4974424;28;20030;-83
2024/03/18 10:20:30;;;;;;;21.70;12.20;;;13.10;99.90;;;;;;4991601;28;20026;-83
2024/03/18 10:22:55;;;;;;;21.33;12.45;;;13.10;99.90;;;;;;4967616;28;20033;-84
2024/03/18 10:25:23;;;;;;;25.35;14.20;;;13.10;99.90;;;;;;4975480;28;20065;-83
2024/03/18 10:27:49;;;;;;;22.70;13.93;;;13.10;99.90;;;;;;4978539;28;20109;-83
2024/03/18 10:30:16;;;;;;;30.02;14.05;;;13.10;99.90;;;;;;4972917;28;20181;-84
2024/03/18 10:32:43;;;;;;;24.00;14.65;;;13.00;99.90;;;;;;4974550;28;20026;-83
2024/03/18 10:35:26;;;;;;;27.30;14.70;;;13.00;99.90;;;;;;4987178;28;20022;-84
2024/03/18 10:37:58;;;;;;;27.42;13.75;;;12.90;99.90;;;;;;4965737;28;20027;-83
2024/03/18 10:40:33;;;;;;;27.00;13.18;;;12.90;99.90;;;;;;4973791;28;20537;-83
2024/03/18 10:43:03;;;;;;;21.88;12.82;;;12.90;99.90;;;;;;4972855;28;20034;-83
2024/03/18 10:45:31;;;;;;;24.05;13.25;;;12.90;99.90;;;;;;4975065;28;20117;-83
2024/03/18 10:48:00;;;;;;;23.42;13.80;;;12.90;99.90;;;;;;4969921;28;20026;-83
2024/03/18 10:50:26;;;;;;;24.27;12.98;;;12.80;99.90;;;;;;4967355;28;20035;-84
2024/03/18 10:52:54;;;;;;;26.85;13.48;;;12.70;99.90;;;;;;4970392;28;20018;-83
2024/03/18 10:55:22;;;;;;;32.50;14.35;;;12.80;99.90;;;;;;4976670;28;20068;-83
2024/03/18 10:57:59;;;;;;;27.60;14.85;;;12.80;99.90;;;;;;4972095;28;20027;-83
2024/03/18 11:00:25;;;;;;;32.15;15.25;;;12.70;99.90;;;;;;4970171;28;20053;-83
2024/03/18 11:03:03;;;;;;;38.40;15.68;;;12.80;99.90;;;;;;4973133;28;20026;-83
2024/03/18 11:05:33;;;;;;;29.90;15.60;;;12.90;99.90;;;;;;4972048;28;20075;-83
2024/03/18 11:08:08;;;;;;;31.42;15.13;;;13.20;99.90;;;;;;4969762;28;20442;-84
2024/03/18 11:10:38;;;;;;;27.20;12.70;;;13.60;99.90;;;;;;4965711;28;20207;-83
2024/03/18 11:13:18;;;;;;;24.08;12.02;;;13.70;99.90;;;;;;4986620;28;20114;-83
2024/03/18 11:15:47;;;;;;;28.98;12.50;;;13.90;99.90;;;;;;4985111;28;20019;-83
2024/03/18 11:18:39;;;;;;;28.85;13.13;;;14.00;99.90;;;;;;4971737;28;20031;-84
2024/03/18 11:21:05;;;;;;;21.75;11.73;;;14.20;99.90;;;;;;4970860;28;20089;-90
2024/03/18 11:23:32;;;;;;;26.35;11.82;;;14.40;99.90;;;;;;4967211;28;20534;-83
2024/03/18 11:26:03;;;;;;;30.65;13.07;;;14.70;99.90;;;;;;4983426;28;20070;-83
2024/03/18 11:28:38;;;;;;;30.80;11.85;;;14.80;99.90;;;;;;4956681;28;20439;-84
2024/03/18 11:31:04;;;;;;;22.02;11.85;;;15.00;99.90;;;;;;4974639;28;20034;-83
2024/03/18 11:33:33;;;;;;;30.08;13.00;;;15.00;99.90;;;;;;4975019;28;20123;-83
2024/03/18 11:36:02;;;;;;;27.38;11.50;;;15.10;99.90;;;;;;4967897;28;20035;-83
2024/03/18 11:38:28;;;;;;;24.75;10.93;;;15.20;99.90;;;;;;4975726;28;20026;-83
2024/03/18 11:40:55;;;;;;;23.25;11.70;;;15.30;99.90;;;;;;4974926;28;20034;-83
2024/03/18 11:43:21;;;;;;;23.33;10.73;;;15.30;99.90;;;;;;4974921;28;20041;-83
2024/03/18 11:45:48;;;;;;;25.10;9.93;;;15.30;99.90;;;;;;4977299;28;20025;-83
2024/03/18 11:48:14;;;;;;;20.38;11.10;;;15.30;99.90;;;;;;4995378;28;20041;-83
2024/03/18 11:50:40;;;;;;;19.55;9.75;;;15.30;99.90;;;;;;4977605;28;20065;-83
2024/03/18 11:53:10;;;;;;;23.65;9.43;;;15.30;99.90;;;;;;4976924;28;20050;-83
2024/03/18 11:55:37;;;;;;;28.58;10.38;;;15.40;99.90;;;;;;4977122;28;20085;-83
2024/03/18 11:58:04;;;;;;;28.45;10.15;;;15.50;99.90;;;;;;4991476;28;20430;-83
2024/03/18 12:00:32;;;;;;;19.83;9.60;;;15.50;99.90;;;;;;4965588;28;20459;-83
2024/03/18 12:03:01;;;;;;;26.00;9.80;;;15.50;99.90;;;;;;4971510;28;20026;-83
2024/03/18 12:05:31;;;;;;;25.77;9.77;;;15.50;99.90;;;;;;4971967;28;20080;-84
2024/03/18 12:07:57;;;;;;;16.15;8.18;;;15.40;99.90;;;;;;4968162;28;20033;-83
2024/03/18 12:10:24;;;;;;;20.98;9.57;;;15.40;99.90;;;;;;4986028;28;20494;-83
2024/03/18 12:12:50;;;;;;;21.27;8.18;;;15.40;99.90;;;;;;4975988;28;20073;-83
2024/03/18 12:15:16;;;;;;;19.55;7.00;;;15.40;99.90;;;;;;4992778;28;20030;-84
2024/03/18 12:17:46;;;;;;;18.55;7.95;;;15.60;99.90;;;;;;4971698;28;20082;-83
2024/03/18 12:20:26;;;;;;;15.80;7.78;;;15.40;99.90;;;;;;4974936;28;20030;-83
2024/03/18 12:23:04;;;;;;;15.75;7.63;;;15.30;99.90;;;;;;4975671;28;20023;-84
2024/03/18 12:28:32;;;;;;;17.98;7.15;;;15.10;99.90;;;;;;4986222;28;20042;-83
2024/03/18 12:30:59;;;;;;;19.88;7.82;;;15.10;99.90;;;;;;4956321;28;20046;-83